Air Sicilia Virtual Airways - Route

Air Sicilia Virtual Airways - SIC083L

( SD ) HSSS
Khartoum International Airport
KHARTOUM ( KRT )
plane_to ( CD ) FZNA
Goma International Airport
GOMA ( GOM )
IFR World Tour 2018 IVAO - LEG: 43

AIRPORT NEAR NAVIGATION AIDS

Type Name Frequency
VOR-DME Khartoum 112100 KHZ

METAR / TAF
HSSS 201200Z 19008KT CAVOK 34/17 Q1010 NOSIG
HSSS 200500Z 2006/2112 20012G22KT 9999 FEW040 BKN140 PROB30 TEMPO 2006/2009 6000 SHRA BKN140

RUNWAY INFORMATION

Runway Runway length Runway width Runway elevation Runway displaced threshold Runway heading
18 9751 148 1265 0 177
36 9751 148 1260 0 357

AIRPORT FREQUENCIES

Type Name Frequency
APP Khartoum A 124.7 MHZ
EMR FIRE 121.9 MHZ
North Area North Sect 125.4 MHZ
South Area South Sect 127.3 MHZ
TWR Khartoum T 119.2 MHZ

AIRPORT NEAR NAVIGATION AIDS

Type Name Frequency
VOR-DME Goma 116500 KHZ
NDB Goma 336 KHZ

METAR / TAF
FZNA 200800Z 18006KT 5000 HZ NSC 21/10 Q1018 NOSIG

RUNWAY INFORMATION

Runway Runway length Runway width Runway elevation Runway displaced threshold Runway heading
18 6545 148 5045 0 174
36 6545 148 4992 0 354

AIRPORT FREQUENCIES

Type Name Frequency
APP APP 126.5 MHZ
GND GND 124.5 MHZ
TWR TWR 118.7 MHZ
UNIC UNICOM 121.9 MHZ

Flightplan

HSSS FZNA

Air Sicilia Virtual Airways Fleets

AVAILABLE AIRCRAFTS for route at this time in Khartoum International Airport
A320 - Airbus A320
( UE ) AIRBUS

Aircraft in fleet: 9

A321 - Airbus A321
( UE ) AIRBUS

Aircraft in fleet: 6

B738 - Boeing 737-800 NGX
( US ) BOEING

Aircraft in fleet: 13

BE58 - Beechcraft Baron 58
( US ) Beechcraft

Aircraft in fleet: 4

1050 NM

Distance in nautical miles.

€ 220,00

Ticket price for this flight.

Nr. 43

Leg



19-07-2018
Aerosoft Oslo X

L'Aeroporto di Oslo-Gardermoen (IATA: OSL, ICAO: ENGM) è il principale aeroporto norvegese e il 19° in Europa, è situato vicino alla cittadina di Ullensaker nella contea di Akershus e serve la capitale Oslo. Ha sostit ....


21-06-2018
Aerosoft Malpensa Professional P3Dv4

L'Aeroporto di Milano-Malpensa (IATA: MXP, ICAO: LIMC) è un aeroporto italiano situato nella provincia di Varese in Lombardia, ma considerato come il principale aeroporto di Milano.

È il secondo aeroporto ital ....


06-06-2018
1° Raduno Air Sicilia Virtual - parla il C.E.O.

Grande successo per il 1° Raduno di Compagnia dell'Air Sicilia Virtual, che ha visto i membri della Crew presenti il 4 giugno 2018 a Thiene ( VI ) , cimentarsi dal vivo con le reali ....


24-05-2018
Aerosoft Airport Rome XP

Tra le nostre recensioni non poteva mancare certo la nuova uscita Aerosoft per X-Plane, stiamo parlando di Airport Rome XP, finalmente un Add-on pay completo dell'Aeroporto di Roma Fiumicino per gli utilizzatori del simu ....


17-05-2018
Holding pattern

Un holding pattern è una determinata manovra che permette di tenere un certo aereo all’interno di uno specifico spazio aereo. Un esempio si ha quando si attende un ulteriore clearence da parte di un controllore. ....